createdAt,value
2023-03-04T00:02:17.917Z,100139.60
2023-03-04T00:04:44.344Z,100133.40
2023-03-04T00:07:11.971Z,100138.80
2023-03-04T00:09:38.334Z,100132.20
2023-03-04T00:12:07.305Z,100133.80
2023-03-04T00:14:33.977Z,100129.60
2023-03-04T00:17:03.035Z,100130.00
2023-03-04T00:19:30.800Z,100123.80
2023-03-04T00:21:57.266Z,100121.20
2023-03-04T00:24:24.517Z,100117.80
2023-03-04T00:26:51.371Z,100114.00
2023-03-04T00:29:17.894Z,100116.20
2023-03-04T00:31:44.322Z,100118.60
2023-03-04T00:34:10.692Z,100121.40
2023-03-04T00:36:37.067Z,100109.00
2023-03-04T00:39:03.575Z,100109.20
2023-03-04T00:41:30.037Z,100103.00
2023-03-04T00:43:56.378Z,100096.60
2023-03-04T00:46:22.824Z,100102.60
2023-03-04T00:48:49.261Z,100095.80
2023-03-04T00:51:15.636Z,100093.80
2023-03-04T00:53:42.018Z,100083.40
2023-03-04T00:56:08.506Z,100089.20
2023-03-04T00:58:34.905Z,100080.40
2023-03-04T01:01:01.313Z,100077.80
2023-03-04T01:03:30.816Z,100077.60
2023-03-04T01:05:57.702Z,100062.80
2023-03-04T01:08:24.288Z,100063.00
2023-03-04T01:10:50.736Z,100054.80
2023-03-04T01:13:17.346Z,100050.80
2023-03-04T01:15:44.272Z,100050.20
2023-03-04T01:18:10.912Z,100046.80
2023-03-04T01:20:37.322Z,100044.40
2023-03-04T01:23:03.696Z,100046.60
2023-03-04T01:25:30.191Z,100049.80
2023-03-04T01:27:56.776Z,100043.80
2023-03-04T01:30:23.198Z,100041.60
2023-03-04T01:32:49.662Z,100037.80
2023-03-04T01:35:16.259Z,100041.60
2023-03-04T01:37:45.294Z,100034.20
2023-03-04T01:40:12.914Z,100036.00
2023-03-04T01:42:39.973Z,100034.00
2023-03-04T01:45:10.299Z,100033.80
2023-03-04T01:47:36.916Z,100031.00
2023-03-04T01:50:13.720Z,100039.20
2023-03-04T01:52:42.394Z,100034.00
2023-03-04T01:55:22.434Z,100040.40
2023-03-04T01:57:51.122Z,100026.00
2023-03-04T02:00:31.727Z,100025.20
2023-03-04T02:03:04.241Z,100024.00
2023-03-04T02:05:30.878Z,100015.60
2023-03-04T02:08:01.006Z,100018.80
2023-03-04T02:10:28.090Z,100007.00
2023-03-04T02:12:54.983Z,100011.20
2023-03-04T02:15:22.673Z,100008.20
2023-03-04T02:17:49.725Z,100016.00
2023-03-04T02:20:44.284Z,100021.00
2023-03-04T02:23:31.588Z,100015.20
2023-03-04T02:26:22.027Z,100017.00
2023-03-04T02:28:52.587Z,100004.80
2023-03-04T02:31:44.398Z,100007.20
2023-03-04T02:34:25.195Z,100009.60
2023-03-04T02:36:54.168Z,100005.80
2023-03-04T02:39:20.470Z,100001.60
2023-03-04T02:41:50.266Z,100003.00
2023-03-04T02:44:27.800Z,100008.80
2023-03-04T02:46:56.254Z,100004.00
2023-03-04T02:49:25.608Z,99993.40
2023-03-04T02:52:00.008Z,99998.40
2023-03-04T02:54:26.732Z,100004.00
2023-03-04T02:56:56.896Z,99993.40
2023-03-04T02:59:23.558Z,99993.40
2023-03-04T03:01:50.600Z,99993.80
2023-03-04T03:04:19.272Z,99994.60
2023-03-04T03:06:45.776Z,99995.60
2023-03-04T03:09:12.291Z,99999.20
2023-03-04T03:11:38.890Z,100004.20
2023-03-04T03:14:05.791Z,100008.60
2023-03-04T03:16:32.323Z,100009.60
2023-03-04T03:18:58.793Z,100012.00
2023-03-04T03:21:25.522Z,100011.80
2023-03-04T03:23:52.163Z,100009.00
2023-03-04T03:26:19.771Z,100008.80
2023-03-04T03:28:46.718Z,100005.60
2023-03-04T03:31:14.014Z,100002.20
2023-03-04T03:33:40.803Z,99998.80
2023-03-04T03:36:08.228Z,99998.20
2023-03-04T03:38:35.209Z,100001.40
2023-03-04T03:41:01.850Z,100001.40
2023-03-04T03:43:28.451Z,100004.20
2023-03-04T03:45:54.928Z,100005.00
2023-03-04T03:48:21.730Z,99999.40
2023-03-04T03:50:48.170Z,100006.40
2023-03-04T03:53:14.615Z,100005.60
2023-03-04T03:55:41.325Z,100001.00
2023-03-04T03:58:07.763Z,99997.60
2023-03-04T04:00:34.277Z,99997.60
2023-03-04T04:03:01.704Z,99994.40
2023-03-04T04:05:28.257Z,99993.20
2023-03-04T04:07:55.465Z,99984.20
2023-03-04T04:10:22.155Z,99987.40
2023-03-04T04:12:48.502Z,99984.20
2023-03-04T04:15:15.003Z,99988.40
2023-03-04T04:17:41.517Z,99992.20
2023-03-04T04:20:10.302Z,99993.40
2023-03-04T04:22:36.799Z,99994.20
2023-03-04T04:25:04.383Z,99990.20
2023-03-04T04:27:30.799Z,99990.40
2023-03-04T04:29:57.228Z,99999.00
2023-03-04T04:32:23.728Z,99998.20
2023-03-04T04:34:50.263Z,99996.60
2023-03-04T04:37:16.694Z,100001.00
2023-03-04T04:39:43.136Z,99997.80
2023-03-04T04:42:10.772Z,99989.60
2023-03-04T04:44:38.315Z,99998.80
2023-03-04T04:47:06.595Z,99990.60
2023-03-04T04:49:33.601Z,99989.00
2023-03-04T04:52:00.151Z,99990.00
2023-03-04T04:54:26.576Z,99991.60
2023-03-04T04:56:53.247Z,99995.80
2023-03-04T04:59:19.858Z,99998.20
2023-03-04T05:01:46.992Z,99998.40
2023-03-04T05:04:13.470Z,99998.20
2023-03-04T05:06:40.192Z,99999.60
2023-03-04T05:09:06.917Z,99993.60
2023-03-04T05:11:33.771Z,99986.00
2023-03-04T05:14:00.438Z,99991.60
2023-03-04T05:16:27.326Z,99991.60
2023-03-04T05:18:53.911Z,99993.00
2023-03-04T05:21:20.646Z,99995.80
2023-03-04T05:23:47.025Z,99991.00
2023-03-04T05:26:17.165Z,99990.20
2023-03-04T05:28:44.570Z,99988.40
2023-03-04T05:31:11.946Z,99991.60
2023-03-04T05:33:38.901Z,99986.60
2023-03-04T05:36:07.397Z,99992.20
2023-03-04T05:38:34.711Z,99990.60
2023-03-04T05:41:05.446Z,99989.80
2023-03-04T05:43:35.485Z,99990.20
2023-03-04T05:46:03.866Z,99988.20
2023-03-04T05:48:30.923Z,99993.80
2023-03-04T05:51:01.339Z,99999.00
2023-03-04T05:53:28.734Z,100000.40
2023-03-04T05:55:55.634Z,99999.60
2023-03-04T05:58:22.414Z,100002.60
2023-03-04T06:00:48.903Z,99998.60
2023-03-04T06:03:19.428Z,100003.80
2023-03-04T06:05:45.954Z,99999.20
2023-03-04T06:08:13.697Z,99995.20
2023-03-04T06:10:41.888Z,100002.80
2023-03-04T06:13:09.772Z,99997.60
2023-03-04T06:15:37.898Z,99995.80
2023-03-04T06:18:05.443Z,99995.20
2023-03-04T06:20:31.920Z,99987.80
2023-03-04T06:22:58.371Z,99987.80
2023-03-04T06:25:25.499Z,99989.20
2023-03-04T06:27:53.576Z,99993.40
2023-03-04T06:30:23.009Z,99992.40
2023-03-04T06:32:49.558Z,99994.40
2023-03-04T06:35:16.359Z,99997.20
2023-03-04T06:37:43.626Z,99995.60
2023-03-04T06:40:12.173Z,99991.60
2023-03-04T06:42:40.190Z,99993.80
2023-03-04T06:45:07.838Z,99999.20
2023-03-04T06:47:34.483Z,99996.60
2023-03-04T06:50:02.430Z,99996.80
2023-03-04T06:52:28.837Z,99997.40
2023-03-04T06:54:55.357Z,100004.60
2023-03-04T06:57:21.848Z,100003.40
2023-03-04T06:59:48.244Z,99994.00
2023-03-04T07:02:14.644Z,99998.00
2023-03-04T07:04:41.162Z,100000.40
2023-03-04T07:07:07.545Z,100000.40
2023-03-04T07:09:33.950Z,100002.00
2023-03-04T07:12:00.409Z,100002.60
2023-03-04T07:14:27.418Z,100007.40
2023-03-04T07:16:54.169Z,100004.00
2023-03-04T07:19:21.219Z,100007.20
2023-03-04T07:21:47.864Z,100013.20
2023-03-04T07:24:15.055Z,100012.80
2023-03-04T07:26:41.652Z,100007.20
2023-03-04T07:29:08.147Z,100011.80
2023-03-04T07:31:36.154Z,100019.00
2023-03-04T07:34:09.897Z,100012.20
2023-03-04T07:36:37.313Z,100013.40
2023-03-04T07:39:05.213Z,100013.00
2023-03-04T07:41:36.380Z,100013.20
2023-03-04T07:44:04.764Z,100017.60
2023-03-04T07:46:31.487Z,100016.20
2023-03-04T07:48:57.938Z,100012.60
2023-03-04T07:51:26.677Z,100020.80
2023-03-04T07:53:58.889Z,100019.80
2023-03-04T07:56:29.860Z,100021.40
2023-03-04T07:58:56.950Z,100022.20
2023-03-04T08:01:31.438Z,100023.80
2023-03-04T08:03:58.708Z,100020.80
2023-03-04T08:06:26.799Z,100022.60
2023-03-04T08:09:05.477Z,100021.00
2023-03-04T08:11:34.567Z,100010.20
2023-03-04T08:14:01.206Z,100007.80
2023-03-04T08:16:28.123Z,100004.00
2023-03-04T08:18:58.393Z,99999.20
2023-03-04T08:21:27.224Z,99995.20
2023-03-04T08:23:56.564Z,99997.00
2023-03-04T08:26:33.240Z,100001.00
2023-03-04T08:29:03.953Z,99993.20
2023-03-04T08:31:31.701Z,99987.20
2023-03-04T08:33:58.279Z,99993.60
2023-03-04T08:36:24.816Z,99999.40
2023-03-04T08:38:51.175Z,99991.00
2023-03-04T08:41:17.739Z,99999.60
2023-03-04T08:43:44.268Z,99996.40
2023-03-04T08:46:11.180Z,100006.80
2023-03-04T08:48:38.381Z,100008.40
2023-03-04T08:51:13.699Z,100013.60
2023-03-04T08:53:40.363Z,100009.80
2023-03-04T08:56:08.268Z,99994.40
2023-03-04T08:58:38.325Z,100009.20
2023-03-04T09:01:09.618Z,100015.20
2023-03-04T09:03:36.674Z,100014.00
2023-03-04T09:06:05.239Z,100016.20
2023-03-04T09:08:32.448Z,100013.80
2023-03-04T09:10:59.565Z,100013.80
2023-03-04T09:13:30.171Z,100021.00
2023-03-04T09:15:58.192Z,100022.80
2023-03-04T09:18:26.160Z,100026.40
2023-03-04T09:20:53.009Z,100031.60
2023-03-04T09:23:20.864Z,100028.20
2023-03-04T09:25:48.887Z,100036.60
2023-03-04T09:28:17.879Z,100023.00
2023-03-04T09:30:44.951Z,100030.00
2023-03-04T09:33:12.999Z,100029.80
2023-03-04T09:35:39.527Z,100030.60
2023-03-04T09:38:06.720Z,100035.60
2023-03-04T09:40:41.583Z,100034.80
2023-03-04T09:43:23.197Z,100030.20
2023-03-04T09:45:56.057Z,100032.60
2023-03-04T09:48:28.238Z,100040.60
2023-03-04T09:51:27.272Z,100042.20
2023-03-04T09:54:08.305Z,100041.00
2023-03-04T09:56:39.641Z,100029.80
2023-03-04T09:59:44.482Z,100045.80
2023-03-04T10:03:09.622Z,100045.80
2023-03-04T10:05:51.245Z,100054.60
2023-03-04T10:09:03.648Z,100052.20
2023-03-04T10:11:50.823Z,100059.60
2023-03-04T10:15:03.247Z,100065.00
2023-03-04T10:17:43.428Z,100064.00
2023-03-04T10:20:19.844Z,100058.80
2023-03-04T10:23:00.060Z,100062.40
2023-03-04T10:25:55.712Z,100074.60
2023-03-04T10:28:29.783Z,100060.80
2023-03-04T10:31:16.645Z,100058.40
2023-03-04T10:33:43.284Z,100053.00
2023-03-04T10:36:15.978Z,100060.80
2023-03-04T10:38:42.758Z,100051.00
2023-03-04T10:41:25.602Z,100052.40
2023-03-04T10:43:58.091Z,100049.20
2023-03-04T10:46:25.479Z,100048.40
2023-03-04T10:48:54.484Z,100055.20
2023-03-04T10:51:25.752Z,100050.80
2023-03-04T10:54:00.246Z,100051.20
2023-03-04T10:56:53.442Z,100042.60
2023-03-04T10:59:32.581Z,100055.40
2023-03-04T11:02:06.466Z,100062.20
2023-03-04T11:04:34.205Z,100056.20
2023-03-04T11:07:00.607Z,100047.00
2023-03-04T11:09:30.978Z,100062.80
2023-03-04T11:12:09.065Z,100069.80
2023-03-04T11:14:45.675Z,100040.40
2023-03-04T11:17:21.116Z,100066.00
2023-03-04T11:19:56.404Z,100069.60
2023-03-04T11:22:25.792Z,100069.60
2023-03-04T11:25:09.916Z,100070.00
2023-03-04T11:27:51.351Z,100066.60
2023-03-04T11:30:44.926Z,100066.40
2023-03-04T11:33:17.128Z,100073.40
2023-03-04T11:36:01.994Z,100074.00
2023-03-04T11:38:37.296Z,100063.40
2023-03-04T11:41:13.721Z,100076.00
2023-03-04T11:43:46.684Z,100087.80
2023-03-04T11:46:45.212Z,100060.80
2023-03-04T11:49:33.384Z,100084.20
2023-03-04T11:52:12.005Z,100087.60
2023-03-04T11:55:04.294Z,100088.00
2023-03-04T11:58:16.707Z,100095.80
2023-03-04T12:00:54.818Z,100100.80
2023-03-04T12:03:42.048Z,100106.80
2023-03-04T12:06:33.635Z,100112.60
2023-03-04T12:09:50.439Z,100102.60
2023-03-04T12:12:29.077Z,100095.00
2023-03-04T12:15:19.343Z,100100.80
2023-03-04T12:17:57.293Z,100112.40
2023-03-04T12:21:17.284Z,100134.00
2023-03-04T12:24:30.936Z,100120.60
2023-03-04T12:27:26.167Z,100122.00
2023-03-04T12:30:20.420Z,100125.20
2023-03-04T12:33:05.088Z,100120.80
2023-03-04T12:36:13.412Z,100145.80
2023-03-04T12:39:23.008Z,100147.20
2023-03-04T12:42:01.000Z,100156.40
2023-03-04T12:44:52.831Z,100155.20
2023-03-04T12:47:51.747Z,100144.20
2023-03-04T12:51:02.042Z,100145.60
2023-03-04T12:54:15.948Z,100158.40
2023-03-04T12:56:54.095Z,100155.20
2023-03-04T12:59:24.283Z,100159.00
2023-03-04T13:02:22.837Z,100156.80
2023-03-04T13:05:08.354Z,100170.00
2023-03-04T13:08:04.411Z,100165.60
2023-03-04T13:10:31.026Z,100175.80
2023-03-04T13:13:01.244Z,100178.40
2023-03-04T13:15:31.894Z,100184.20
2023-03-04T13:18:20.753Z,100183.40
2023-03-04T13:21:05.619Z,100178.00
2023-03-04T13:23:32.468Z,100188.80
2023-03-04T13:25:58.855Z,100187.20
2023-03-04T13:28:30.368Z,100191.00
2023-03-04T13:30:58.842Z,100195.40
2023-03-04T13:33:27.784Z,100191.00
2023-03-04T13:36:01.479Z,100192.40
2023-03-04T13:38:30.252Z,100198.60
2023-03-04T13:41:12.366Z,100195.00
2023-03-04T13:43:47.021Z,100199.00
2023-03-04T13:46:19.577Z,100192.60
2023-03-04T13:49:01.238Z,100201.60
2023-03-04T13:51:41.092Z,100209.20
2023-03-04T13:54:20.724Z,100210.00
2023-03-04T13:57:33.263Z,100206.20
2023-03-04T14:00:13.362Z,100213.40
2023-03-04T14:02:51.569Z,100211.20
2023-03-04T14:05:18.403Z,100217.80
2023-03-04T14:07:44.898Z,100215.60
2023-03-04T14:10:11.287Z,100219.20
2023-03-04T14:12:49.411Z,100228.00
2023-03-04T14:15:34.693Z,100229.20
2023-03-04T14:18:04.877Z,100229.20
2023-03-04T14:20:38.646Z,100238.60
2023-03-04T14:23:35.533Z,100238.00
2023-03-04T14:26:12.112Z,100253.40
2023-03-04T14:28:56.777Z,100252.00
2023-03-04T14:31:30.617Z,100264.00
2023-03-04T14:34:01.567Z,100270.40
2023-03-04T14:36:33.611Z,100273.60
2023-03-04T14:39:05.254Z,100273.60
2023-03-04T14:41:39.369Z,100279.20
2023-03-04T14:44:18.024Z,100282.20
2023-03-04T14:47:07.847Z,100277.00
2023-03-04T14:49:36.959Z,100284.40
2023-03-04T14:52:04.816Z,100283.20
2023-03-04T14:54:40.979Z,100263.80
2023-03-04T14:57:26.109Z,100282.00
2023-03-04T14:59:53.495Z,100286.60
2023-03-04T15:02:35.596Z,100294.60
2023-03-04T15:05:26.373Z,100292.60
2023-03-04T15:08:03.640Z,100285.80
2023-03-04T15:10:34.865Z,100281.20
2023-03-04T15:13:05.302Z,100281.60
2023-03-04T15:15:46.192Z,100283.00
2023-03-04T15:18:27.954Z,100277.60
2023-03-04T15:21:20.060Z,100290.00
2023-03-04T15:23:47.013Z,100278.40
2023-03-04T15:26:13.876Z,100286.80
2023-03-04T15:28:41.524Z,100278.80
2023-03-04T15:31:21.017Z,100281.00
2023-03-04T15:33:48.152Z,100279.40
2023-03-04T15:36:23.384Z,100277.40
2023-03-04T15:38:52.825Z,100269.20
2023-03-04T15:41:26.751Z,100278.60
2023-03-04T15:43:54.437Z,100285.00
2023-03-04T15:46:21.783Z,100281.20
2023-03-04T15:48:50.685Z,100276.60
2023-03-04T15:51:21.544Z,100281.60
2023-03-04T15:53:55.189Z,100278.20
2023-03-04T15:56:32.844Z,100281.40
2023-03-04T15:59:11.016Z,100282.40
2023-03-04T16:01:41.234Z,100284.40
2023-03-04T16:04:17.544Z,100285.80
2023-03-04T16:06:47.053Z,100282.00
2023-03-04T16:09:19.009Z,100285.60
2023-03-04T16:11:46.975Z,100290.80
2023-03-04T16:14:15.833Z,100293.20
2023-03-04T16:16:43.765Z,100290.40
2023-03-04T16:19:10.215Z,100298.00
2023-03-04T16:21:36.651Z,100297.20
2023-03-04T16:24:03.957Z,100301.20
2023-03-04T16:26:35.356Z,100300.60
2023-03-04T16:29:04.285Z,100304.00
2023-03-04T16:31:30.752Z,100308.00
2023-03-04T16:33:57.197Z,100309.40
2023-03-04T16:36:26.997Z,100311.80
2023-03-04T16:39:02.121Z,100315.00
2023-03-04T16:41:35.038Z,100314.80
2023-03-04T16:44:01.622Z,100316.00
2023-03-04T16:46:29.426Z,100323.40
2023-03-04T16:48:59.170Z,100321.40
2023-03-04T16:51:25.768Z,100321.00
2023-03-04T16:54:01.300Z,100332.40
2023-03-04T16:56:28.301Z,100335.20
2023-03-04T16:58:54.853Z,100335.80
2023-03-04T17:01:26.708Z,100339.80
2023-03-04T17:03:55.052Z,100344.60
2023-03-04T17:06:23.515Z,100342.40
2023-03-04T17:08:50.365Z,100344.80
2023-03-04T17:11:22.199Z,100350.60
2023-03-04T17:13:49.679Z,100352.20
2023-03-04T17:16:20.501Z,100355.60
2023-03-04T17:18:49.556Z,100354.40
2023-03-04T17:21:21.381Z,100358.20
2023-03-04T17:23:48.173Z,100357.80
2023-03-04T17:26:16.178Z,100359.60
2023-03-04T17:28:42.581Z,100365.20
2023-03-04T17:31:16.024Z,100368.00
2023-03-04T17:33:43.288Z,100364.80
2023-03-04T17:36:12.120Z,100369.80
2023-03-04T17:38:39.827Z,100368.80
2023-03-04T17:41:15.115Z,100373.20
2023-03-04T17:43:49.881Z,100377.20
2023-03-04T17:46:20.456Z,100374.20
2023-03-04T17:48:48.286Z,100377.40
2023-03-04T17:51:14.871Z,100376.40
2023-03-04T17:53:41.802Z,100376.20
2023-03-04T17:56:11.119Z,100376.80
2023-03-04T17:58:38.838Z,100378.00
2023-03-04T18:01:16.118Z,100375.80
2023-03-04T18:03:43.574Z,100369.00
2023-03-04T18:06:10.484Z,100377.80
2023-03-04T18:08:36.939Z,100376.60
2023-03-04T18:11:03.799Z,100375.40
2023-03-04T18:13:30.344Z,100375.00
2023-03-04T18:15:56.885Z,100383.20
2023-03-04T18:18:23.559Z,100379.60
2023-03-04T18:21:00.674Z,100377.20
2023-03-04T18:23:28.310Z,100377.20
2023-03-04T18:25:56.437Z,100383.80
2023-03-04T18:28:23.837Z,100385.20
2023-03-04T18:30:52.395Z,100388.00
2023-03-04T18:33:19.878Z,100386.60
2023-03-04T18:35:46.562Z,100382.80
2023-03-04T18:38:13.111Z,100382.80
2023-03-04T18:40:41.165Z,100381.40
2023-03-04T18:43:08.172Z,100375.60
2023-03-04T18:45:34.662Z,100375.00
2023-03-04T18:48:01.058Z,100377.00
2023-03-04T18:50:27.937Z,100379.80
2023-03-04T18:52:54.456Z,100372.80
2023-03-04T18:55:22.973Z,100374.40
2023-03-04T18:57:54.243Z,100371.00
2023-03-04T19:00:23.609Z,100366.80
2023-03-04T19:03:03.806Z,100371.20
2023-03-04T19:05:34.499Z,100367.80
2023-03-04T19:08:01.372Z,100368.20
2023-03-04T19:10:28.654Z,100362.80
2023-03-04T19:12:57.052Z,100366.60
2023-03-04T19:15:23.772Z,100363.80
2023-03-04T19:17:51.189Z,100362.00
2023-03-04T19:20:18.110Z,100360.80
2023-03-04T19:22:45.019Z,100358.80
2023-03-04T19:25:11.955Z,100359.40
2023-03-04T19:27:38.738Z,100358.00
2023-03-04T19:30:06.973Z,100353.80
2023-03-04T19:32:35.906Z,100352.80
2023-03-04T19:35:06.176Z,100354.20
2023-03-04T19:37:32.647Z,100354.60
2023-03-04T19:39:59.343Z,100352.60
2023-03-04T19:42:26.381Z,100359.60
2023-03-04T19:44:53.085Z,100361.20
2023-03-04T19:47:19.504Z,100359.60
2023-03-04T19:49:46.650Z,100364.40
2023-03-04T19:52:13.227Z,100357.20
2023-03-04T19:54:39.877Z,100361.40
2023-03-04T19:57:06.445Z,100356.20
2023-03-04T19:59:34.933Z,100362.60
2023-03-04T20:02:02.347Z,100358.80
2023-03-04T20:04:28.920Z,100354.40
2023-03-04T20:06:55.329Z,100356.80
2023-03-04T20:09:22.141Z,100357.60
2023-03-04T20:12:02.790Z,100356.20
2023-03-04T20:14:33.428Z,100353.00
2023-03-04T20:17:02.747Z,100352.80
2023-03-04T20:19:31.425Z,100351.80
2023-03-04T20:21:59.030Z,100349.00
2023-03-04T20:24:26.576Z,100353.40
2023-03-04T20:26:53.569Z,100346.80
2023-03-04T20:29:20.007Z,100343.20
2023-03-04T20:31:46.426Z,100347.40
2023-03-04T20:34:14.942Z,100337.20
2023-03-04T20:36:41.483Z,100339.60
2023-03-04T20:39:27.038Z,100338.40
2023-03-04T20:41:57.528Z,100343.00
2023-03-04T20:44:24.567Z,100335.60
2023-03-04T20:46:51.360Z,100331.20
2023-03-04T20:49:23.704Z,100326.20
2023-03-04T20:51:53.797Z,100328.80
2023-03-04T20:54:20.373Z,100330.20
2023-03-04T20:56:47.223Z,100322.20
2023-03-04T20:59:14.179Z,100321.00
2023-03-04T21:01:44.843Z,100320.00
2023-03-04T21:04:11.492Z,100323.00
2023-03-04T21:06:39.042Z,100322.40
2023-03-04T21:09:11.049Z,100323.20
2023-03-04T21:11:39.891Z,100322.00
2023-03-04T21:14:23.616Z,100314.20
2023-03-04T21:16:55.869Z,100314.00
2023-03-04T21:19:27.289Z,100308.60
2023-03-04T21:21:57.296Z,100305.60
2023-03-04T21:24:30.598Z,100302.60
2023-03-04T21:26:58.153Z,100301.60
2023-03-04T21:29:28.939Z,100300.80
2023-03-04T21:32:23.352Z,100299.40
2023-03-04T21:34:52.733Z,100303.00
2023-03-04T21:37:24.437Z,100300.00
2023-03-04T21:39:51.598Z,100292.80
2023-03-04T21:42:18.838Z,100294.20
2023-03-04T21:44:49.555Z,100293.00
2023-03-04T21:47:19.328Z,100295.00
2023-03-04T21:49:46.305Z,100289.00
2023-03-04T21:52:13.148Z,100289.60
2023-03-04T21:54:39.674Z,100286.60
2023-03-04T21:57:06.224Z,100285.00
2023-03-04T21:59:32.666Z,100279.00
2023-03-04T22:01:59.195Z,100278.60
2023-03-04T22:04:25.950Z,100283.80
2023-03-04T22:06:52.340Z,100281.80
2023-03-04T22:09:19.015Z,100277.60
2023-03-04T22:11:45.497Z,100276.20
2023-03-04T22:14:12.311Z,100274.20
2023-03-04T22:16:54.120Z,100272.80
2023-03-04T22:19:24.413Z,100279.00
2023-03-04T22:21:52.521Z,100267.80
2023-03-04T22:24:20.214Z,100266.40
2023-03-04T22:26:47.164Z,100264.00
2023-03-04T22:29:13.787Z,100268.00
2023-03-04T22:31:40.474Z,100265.40
2023-03-04T22:34:09.855Z,100266.20
2023-03-04T22:36:40.690Z,100267.20
2023-03-04T22:39:11.941Z,100264.00
2023-03-04T22:41:38.511Z,100266.00
2023-03-04T22:44:05.803Z,100267.20
2023-03-04T22:46:35.763Z,100266.40
2023-03-04T22:49:08.851Z,100262.00
2023-03-04T22:51:36.382Z,100265.40
2023-03-04T22:54:03.083Z,100262.20
2023-03-04T22:56:29.548Z,100261.20
2023-03-04T22:58:55.999Z,100258.60
2023-03-04T23:01:22.583Z,100258.20
2023-03-04T23:03:49.612Z,100265.00
2023-03-04T23:06:24.545Z,100255.60
2023-03-04T23:08:51.966Z,100251.00
2023-03-04T23:11:22.298Z,100246.80
2023-03-04T23:13:50.459Z,100242.40
2023-03-04T23:16:18.562Z,100246.40
2023-03-04T23:18:47.738Z,100243.20
2023-03-04T23:21:23.716Z,100238.00
2023-03-04T23:23:51.890Z,100238.00
2023-03-04T23:26:26.714Z,100233.00
2023-03-04T23:29:00.632Z,100226.00
2023-03-04T23:31:29.580Z,100225.00
2023-03-04T23:33:57.636Z,100225.80
2023-03-04T23:36:35.034Z,100226.20
2023-03-04T23:39:03.133Z,100221.00
2023-03-04T23:41:31.129Z,100220.00
2023-03-04T23:43:59.870Z,100214.00
2023-03-04T23:46:28.089Z,100213.80
2023-03-04T23:48:55.230Z,100210.60
2023-03-04T23:51:26.918Z,100213.80
2023-03-04T23:53:54.740Z,100210.40
2023-03-04T23:56:25.574Z,100199.40
2023-03-04T23:58:52.764Z,100196.40
